sensor_id;sensor_type;location;lat;lon;timestamp;temperature;humidity
75824;DHT22;64457;51.976;9.834;2023-02-28T00:00:53;3.90;88.60
75824;DHT22;64457;51.976;9.834;2023-02-28T00:03:20;3.90;88.80
75824;DHT22;64457;51.976;9.834;2023-02-28T00:05:47;3.80;89.40
75824;DHT22;64457;51.976;9.834;2023-02-28T00:08:15;3.70;90.00
75824;DHT22;64457;51.976;9.834;2023-02-28T00:10:42;3.60;90.00
75824;DHT22;64457;51.976;9.834;2023-02-28T00:13:11;3.60;90.30
75824;DHT22;64457;51.976;9.834;2023-02-28T00:15:38;3.60;90.30
75824;DHT22;64457;51.976;9.834;2023-02-28T00:18:06;3.70;90.30
75824;DHT22;64457;51.976;9.834;2023-02-28T00:20:33;3.60;90.20
75824;DHT22;64457;51.976;9.834;2023-02-28T00:23:00;3.50;90.20
75824;DHT22;64457;51.976;9.834;2023-02-28T00:25:28;3.50;90.10
75824;DHT22;64457;51.976;9.834;2023-02-28T00:27:55;3.60;89.80
75824;DHT22;64457;51.976;9.834;2023-02-28T00:30:23;3.60;89.70
75824;DHT22;64457;51.976;9.834;2023-02-28T00:32:51;3.70;90.00
75824;DHT22;64457;51.976;9.834;2023-02-28T00:35:19;3.60;90.40
75824;DHT22;64457;51.976;9.834;2023-02-28T00:37:48;3.60;90.10
75824;DHT22;64457;51.976;9.834;2023-02-28T00:40:16;3.60;90.10
75824;DHT22;64457;51.976;9.834;2023-02-28T00:42:43;3.50;90.30
75824;DHT22;64457;51.976;9.834;2023-02-28T00:45:10;3.50;90.60
75824;DHT22;64457;51.976;9.834;2023-02-28T00:47:39;3.60;90.70
75824;DHT22;64457;51.976;9.834;2023-02-28T00:50:07;3.70;90.40
75824;DHT22;64457;51.976;9.834;2023-02-28T00:52:35;3.70;90.30
75824;DHT22;64457;51.976;9.834;2023-02-28T00:55:03;3.70;90.40
75824;DHT22;64457;51.976;9.834;2023-02-28T00:57:31;3.70;90.00
75824;DHT22;64457;51.976;9.834;2023-02-28T00:59:58;3.70;90.10
75824;DHT22;64457;51.976;9.834;2023-02-28T01:02:25;3.60;90.20
75824;DHT22;64457;51.976;9.834;2023-02-28T01:04:54;3.50;90.20
75824;DHT22;64457;51.976;9.834;2023-02-28T01:07:22;3.50;89.70
75824;DHT22;64457;51.976;9.834;2023-02-28T01:09:49;3.50;89.50
75824;DHT22;64457;51.976;9.834;2023-02-28T01:12:16;3.40;89.80
75824;DHT22;64457;51.976;9.834;2023-02-28T01:14:44;3.30;90.10
75824;DHT22;64457;51.976;9.834;2023-02-28T01:17:11;3.30;90.30
75824;DHT22;64457;51.976;9.834;2023-02-28T01:19:38;3.10;90.40
75824;DHT22;64457;51.976;9.834;2023-02-28T01:22:06;3.10;90.50
75824;DHT22;64457;51.976;9.834;2023-02-28T01:24:34;3.10;90.60
75824;DHT22;64457;51.976;9.834;2023-02-28T01:27:01;3.10;90.50
75824;DHT22;64457;51.976;9.834;2023-02-28T01:29:28;3.20;90.10
75824;DHT22;64457;51.976;9.834;2023-02-28T01:31:56;3.10;90.50
75824;DHT22;64457;51.976;9.834;2023-02-28T01:34:25;3.00;90.60
75824;DHT22;64457;51.976;9.834;2023-02-28T01:36:52;3.00;90.50
75824;DHT22;64457;51.976;9.834;2023-02-28T01:39:20;3.00;90.50
75824;DHT22;64457;51.976;9.834;2023-02-28T01:41:48;3.00;90.00
75824;DHT22;64457;51.976;9.834;2023-02-28T01:47:22;2.60;90.40
75824;DHT22;64457;51.976;9.834;2023-02-28T01:49:50;2.60;90.70
75824;DHT22;64457;51.976;9.834;2023-02-28T01:52:18;2.70;90.80
75824;DHT22;64457;51.976;9.834;2023-02-28T01:54:50;2.70;91.00
75824;DHT22;64457;51.976;9.834;2023-02-28T01:57:21;2.80;91.10
75824;DHT22;64457;51.976;9.834;2023-02-28T01:59:53;2.90;90.90
75824;DHT22;64457;51.976;9.834;2023-02-28T02:02:23;3.00;90.70
75824;DHT22;64457;51.976;9.834;2023-02-28T02:04:55;3.00;90.70
75824;DHT22;64457;51.976;9.834;2023-02-28T02:07:30;2.90;90.30
75824;DHT22;64457;51.976;9.834;2023-02-28T02:10:05;2.90;90.40
75824;DHT22;64457;51.976;9.834;2023-02-28T02:12:48;2.90;90.70
75824;DHT22;64457;51.976;9.834;2023-02-28T02:15:34;2.90;90.80
75824;DHT22;64457;51.976;9.834;2023-02-28T02:18:14;2.80;90.80
75824;DHT22;64457;51.976;9.834;2023-02-28T02:24:29;2.80;91.10
75824;DHT22;64457;51.976;9.834;2023-02-28T02:27:25;2.80;91.00
75824;DHT22;64457;51.976;9.834;2023-02-28T02:30:29;2.70;91.30
75824;DHT22;64457;51.976;9.834;2023-02-28T02:33:37;2.70;91.20
75824;DHT22;64457;51.976;9.834;2023-02-28T02:36:33;2.70;90.70
75824;DHT22;64457;51.976;9.834;2023-02-28T02:39:08;2.70;90.70
75824;DHT22;64457;51.976;9.834;2023-02-28T02:41:45;2.70;91.10
75824;DHT22;64457;51.976;9.834;2023-02-28T02:44:18;2.80;91.30
75824;DHT22;64457;51.976;9.834;2023-02-28T02:46:49;2.80;91.10
75824;DHT22;64457;51.976;9.834;2023-02-28T02:49:21;2.90;91.20
75824;DHT22;64457;51.976;9.834;2023-02-28T02:51:53;2.90;90.80
75824;DHT22;64457;51.976;9.834;2023-02-28T02:54:24;3.00;90.70
75824;DHT22;64457;51.976;9.834;2023-02-28T02:56:57;3.00;90.70
75824;DHT22;64457;51.976;9.834;2023-02-28T02:59:28;3.00;90.60
75824;DHT22;64457;51.976;9.834;2023-02-28T03:01:59;3.00;90.40
75824;DHT22;64457;51.976;9.834;2023-02-28T03:04:32;2.90;90.40
75824;DHT22;64457;51.976;9.834;2023-02-28T03:07:03;2.80;90.50
75824;DHT22;64457;51.976;9.834;2023-02-28T03:09:33;2.90;90.50
75824;DHT22;64457;51.976;9.834;2023-02-28T03:12:01;3.00;90.30
75824;DHT22;64457;51.976;9.834;2023-02-28T03:14:38;3.00;90.30
75824;DHT22;64457;51.976;9.834;2023-02-28T03:20:10;3.00;90.10
75824;DHT22;64457;51.976;9.834;2023-02-28T03:22:52;3.00;90.40
75824;DHT22;64457;51.976;9.834;2023-02-28T03:25:32;3.10;90.20
75824;DHT22;64457;51.976;9.834;2023-02-28T03:28:08;3.00;90.20
75824;DHT22;64457;51.976;9.834;2023-02-28T03:30:46;3.00;90.10
75824;DHT22;64457;51.976;9.834;2023-02-28T03:33:22;3.10;90.10
75824;DHT22;64457;51.976;9.834;2023-02-28T03:35:54;3.20;89.30
75824;DHT22;64457;51.976;9.834;2023-02-28T03:38:28;3.10;89.70
75824;DHT22;64457;51.976;9.834;2023-02-28T03:41:01;3.10;89.10
75824;DHT22;64457;51.976;9.834;2023-02-28T03:43:32;3.10;89.20
75824;DHT22;64457;51.976;9.834;2023-02-28T03:46:07;3.10;89.90
75824;DHT22;64457;51.976;9.834;2023-02-28T03:48:42;3.20;88.70
75824;DHT22;64457;51.976;9.834;2023-02-28T03:51:14;3.20;88.20
75824;DHT22;64457;51.976;9.834;2023-02-28T03:53:46;3.00;88.00
75824;DHT22;64457;51.976;9.834;2023-02-28T03:56:17;3.10;88.70
75824;DHT22;64457;51.976;9.834;2023-02-28T03:58:51;3.10;88.60
75824;DHT22;64457;51.976;9.834;2023-02-28T04:01:25;3.10;88.70
75824;DHT22;64457;51.976;9.834;2023-02-28T04:03:55;3.20;88.90
75824;DHT22;64457;51.976;9.834;2023-02-28T04:06:23;3.10;89.00
75824;DHT22;64457;51.976;9.834;2023-02-28T04:08:51;3.20;90.00
75824;DHT22;64457;51.976;9.834;2023-02-28T04:11:22;3.20;89.60
75824;DHT22;64457;51.976;9.834;2023-02-28T04:13:53;3.20;89.60
75824;DHT22;64457;51.976;9.834;2023-02-28T04:16:21;3.10;90.00
75824;DHT22;64457;51.976;9.834;2023-02-28T04:18:48;3.10;90.00
75824;DHT22;64457;51.976;9.834;2023-02-28T04:21:15;3.10;90.10
75824;DHT22;64457;51.976;9.834;2023-02-28T04:23:46;3.20;90.00
75824;DHT22;64457;51.976;9.834;2023-02-28T04:26:14;3.10;89.60
75824;DHT22;64457;51.976;9.834;2023-02-28T04:28:42;3.10;89.90
75824;DHT22;64457;51.976;9.834;2023-02-28T04:31:09;3.10;90.30
75824;DHT22;64457;51.976;9.834;2023-02-28T04:33:36;3.10;90.40
75824;DHT22;64457;51.976;9.834;2023-02-28T04:36:06;3.10;90.40
75824;DHT22;64457;51.976;9.834;2023-02-28T04:38:37;3.10;90.20
75824;DHT22;64457;51.976;9.834;2023-02-28T04:41:05;3.10;89.80
75824;DHT22;64457;51.976;9.834;2023-02-28T04:43:34;3.00;90.00
75824;DHT22;64457;51.976;9.834;2023-02-28T04:46:03;3.00;90.10
75824;DHT22;64457;51.976;9.834;2023-02-28T04:48:33;3.00;90.20
75824;DHT22;64457;51.976;9.834;2023-02-28T04:51:01;2.90;90.40
75824;DHT22;64457;51.976;9.834;2023-02-28T04:53:29;3.00;90.60
75824;DHT22;64457;51.976;9.834;2023-02-28T04:55:57;3.00;90.30
75824;DHT22;64457;51.976;9.834;2023-02-28T04:58:25;2.90;90.20
75824;DHT22;64457;51.976;9.834;2023-02-28T05:00:54;2.90;90.50
75824;DHT22;64457;51.976;9.834;2023-02-28T05:03:28;2.90;90.70
75824;DHT22;64457;51.976;9.834;2023-02-28T05:05:55;2.90;90.60
75824;DHT22;64457;51.976;9.834;2023-02-28T05:08:23;2.90;90.60
75824;DHT22;64457;51.976;9.834;2023-02-28T05:10:50;2.90;90.90
75824;DHT22;64457;51.976;9.834;2023-02-28T05:13:18;2.90;91.00
75824;DHT22;64457;51.976;9.834;2023-02-28T05:15:45;2.90;90.30
75824;DHT22;64457;51.976;9.834;2023-02-28T05:18:13;3.00;90.30
75824;DHT22;64457;51.976;9.834;2023-02-28T05:20:40;2.90;90.20
75824;DHT22;64457;51.976;9.834;2023-02-28T05:23:09;2.90;90.40
75824;DHT22;64457;51.976;9.834;2023-02-28T05:25:38;2.90;90.60
75824;DHT22;64457;51.976;9.834;2023-02-28T05:28:07;2.80;90.00
75824;DHT22;64457;51.976;9.834;2023-02-28T05:30:34;2.60;90.20
75824;DHT22;64457;51.976;9.834;2023-02-28T05:33:02;2.50;90.20
75824;DHT22;64457;51.976;9.834;2023-02-28T05:35:30;2.50;90.20
75824;DHT22;64457;51.976;9.834;2023-02-28T05:37:58;2.50;90.30
75824;DHT22;64457;51.976;9.834;2023-02-28T05:40:26;2.50;90.30
75824;DHT22;64457;51.976;9.834;2023-02-28T05:42:53;2.40;90.20
75824;DHT22;64457;51.976;9.834;2023-02-28T05:45:20;2.30;90.30
75824;DHT22;64457;51.976;9.834;2023-02-28T05:47:47;2.30;90.30
75824;DHT22;64457;51.976;9.834;2023-02-28T05:50:15;2.30;90.50
75824;DHT22;64457;51.976;9.834;2023-02-28T05:52:44;2.20;90.40
75824;DHT22;64457;51.976;9.834;2023-02-28T05:55:11;2.20;90.40
75824;DHT22;64457;51.976;9.834;2023-02-28T05:57:38;2.20;90.10
75824;DHT22;64457;51.976;9.834;2023-02-28T06:00:08;2.10;90.20
75824;DHT22;64457;51.976;9.834;2023-02-28T06:02:40;2.00;90.50
75824;DHT22;64457;51.976;9.834;2023-02-28T06:05:13;1.90;90.80
75824;DHT22;64457;51.976;9.834;2023-02-28T06:07:44;1.80;90.90
75824;DHT22;64457;51.976;9.834;2023-02-28T06:10:12;1.80;91.10
75824;DHT22;64457;51.976;9.834;2023-02-28T06:12:40;1.80;91.10
75824;DHT22;64457;51.976;9.834;2023-02-28T06:15:12;1.80;91.30
75824;DHT22;64457;51.976;9.834;2023-02-28T06:17:40;1.80;91.20
75824;DHT22;64457;51.976;9.834;2023-02-28T06:20:11;1.90;91.20
75824;DHT22;64457;51.976;9.834;2023-02-28T06:22:39;1.90;91.10
75824;DHT22;64457;51.976;9.834;2023-02-28T06:25:09;2.00;91.20
75824;DHT22;64457;51.976;9.834;2023-02-28T06:27:37;1.80;91.20
75824;DHT22;64457;51.976;9.834;2023-02-28T06:30:05;1.80;91.30
75824;DHT22;64457;51.976;9.834;2023-02-28T06:32:33;1.80;91.30
75824;DHT22;64457;51.976;9.834;2023-02-28T06:35:01;1.70;91.40
75824;DHT22;64457;51.976;9.834;2023-02-28T06:37:30;1.80;91.60
75824;DHT22;64457;51.976;9.834;2023-02-28T06:39:57;1.90;91.60
75824;DHT22;64457;51.976;9.834;2023-02-28T06:42:26;2.00;91.50
75824;DHT22;64457;51.976;9.834;2023-02-28T06:44:54;2.20;91.80
75824;DHT22;64457;51.976;9.834;2023-02-28T06:47:22;2.30;91.60
75824;DHT22;64457;51.976;9.834;2023-02-28T06:49:50;2.40;91.30
75824;DHT22;64457;51.976;9.834;2023-02-28T06:52:17;2.40;91.30
75824;DHT22;64457;51.976;9.834;2023-02-28T06:54:44;2.60;91.00
75824;DHT22;64457;51.976;9.834;2023-02-28T06:57:12;2.60;90.80
75824;DHT22;64457;51.976;9.834;2023-02-28T06:59:40;2.50;90.70
75824;DHT22;64457;51.976;9.834;2023-02-28T07:02:08;2.60;90.90
75824;DHT22;64457;51.976;9.834;2023-02-28T07:04:35;2.60;91.20
75824;DHT22;64457;51.976;9.834;2023-02-28T07:07:02;2.80;91.30
75824;DHT22;64457;51.976;9.834;2023-02-28T07:09:30;2.90;91.30
75824;DHT22;64457;51.976;9.834;2023-02-28T07:11:57;3.10;90.90
75824;DHT22;64457;51.976;9.834;2023-02-28T07:14:25;3.20;90.70
75824;DHT22;64457;51.976;9.834;2023-02-28T07:16:54;3.20;90.60
75824;DHT22;64457;51.976;9.834;2023-02-28T07:19:21;3.30;90.60
75824;DHT22;64457;51.976;9.834;2023-02-28T07:21:48;3.50;90.40
75824;DHT22;64457;51.976;9.834;2023-02-28T07:24:15;3.50;90.30
75824;DHT22;64457;51.976;9.834;2023-02-28T07:26:43;3.50;89.20
75824;DHT22;64457;51.976;9.834;2023-02-28T07:29:11;3.50;89.20
75824;DHT22;64457;51.976;9.834;2023-02-28T07:31:38;3.50;90.00
75824;DHT22;64457;51.976;9.834;2023-02-28T07:34:06;3.40;90.00
75824;DHT22;64457;51.976;9.834;2023-02-28T07:36:34;3.50;89.60
75824;DHT22;64457;51.976;9.834;2023-02-28T07:39:02;3.50;90.30
75824;DHT22;64457;51.976;9.834;2023-02-28T07:41:30;3.50;90.10
75824;DHT22;64457;51.976;9.834;2023-02-28T07:43:59;3.40;90.80
75824;DHT22;64457;51.976;9.834;2023-02-28T07:46:28;3.50;90.30
75824;DHT22;64457;51.976;9.834;2023-02-28T07:49:03;3.80;90.50
75824;DHT22;64457;51.976;9.834;2023-02-28T07:51:32;3.90;90.00
75824;DHT22;64457;51.976;9.834;2023-02-28T07:53:59;4.00;90.00
75824;DHT22;64457;51.976;9.834;2023-02-28T07:56:26;4.30;89.30
75824;DHT22;64457;51.976;9.834;2023-02-28T07:58:53;4.40;89.00
75824;DHT22;64457;51.976;9.834;2023-02-28T08:01:20;4.50;89.80
75824;DHT22;64457;51.976;9.834;2023-02-28T08:03:48;4.50;88.40
75824;DHT22;64457;51.976;9.834;2023-02-28T08:06:16;4.60;86.50
75824;DHT22;64457;51.976;9.834;2023-02-28T08:08:46;4.40;86.20
75824;DHT22;64457;51.976;9.834;2023-02-28T08:11:14;4.40;86.70
75824;DHT22;64457;51.976;9.834;2023-02-28T08:13:42;4.50;87.30
75824;DHT22;64457;51.976;9.834;2023-02-28T08:16:10;4.40;86.90
75824;DHT22;64457;51.976;9.834;2023-02-28T08:18:37;4.50;86.50
75824;DHT22;64457;51.976;9.834;2023-02-28T08:21:08;4.30;86.50
75824;DHT22;64457;51.976;9.834;2023-02-28T08:23:36;4.50;87.00
75824;DHT22;64457;51.976;9.834;2023-02-28T08:26:05;4.80;86.70
75824;DHT22;64457;51.976;9.834;2023-02-28T08:28:34;5.00;85.70
75824;DHT22;64457;51.976;9.834;2023-02-28T08:31:07;5.10;84.70
75824;DHT22;64457;51.976;9.834;2023-02-28T08:33:35;4.90;85.30
75824;DHT22;64457;51.976;9.834;2023-02-28T08:36:05;4.80;85.40
75824;DHT22;64457;51.976;9.834;2023-02-28T08:38:33;4.70;86.00
75824;DHT22;64457;51.976;9.834;2023-02-28T08:41:03;4.90;86.70
75824;DHT22;64457;51.976;9.834;2023-02-28T08:43:33;5.10;86.00
75824;DHT22;64457;51.976;9.834;2023-02-28T08:46:02;5.50;86.00
75824;DHT22;64457;51.976;9.834;2023-02-28T08:48:31;5.50;85.30
75824;DHT22;64457;51.976;9.834;2023-02-28T08:51:01;5.50;84.30
75824;DHT22;64457;51.976;9.834;2023-02-28T08:53:29;5.60;84.40
75824;DHT22;64457;51.976;9.834;2023-02-28T08:55:57;5.60;84.20
75824;DHT22;64457;51.976;9.834;2023-02-28T08:58:27;5.50;84.50
75824;DHT22;64457;51.976;9.834;2023-02-28T09:00:55;5.40;84.70
75824;DHT22;64457;51.976;9.834;2023-02-28T09:03:23;5.40;85.60
75824;DHT22;64457;51.976;9.834;2023-02-28T09:05:55;5.50;86.00
75824;DHT22;64457;51.976;9.834;2023-02-28T09:08:23;5.50;85.10
75824;DHT22;64457;51.976;9.834;2023-02-28T09:10:52;5.50;85.40
75824;DHT22;64457;51.976;9.834;2023-02-28T09:13:20;5.60;86.20
75824;DHT22;64457;51.976;9.834;2023-02-28T09:15:48;5.80;86.10
75824;DHT22;64457;51.976;9.834;2023-02-28T09:18:16;5.90;85.80
75824;DHT22;64457;51.976;9.834;2023-02-28T09:20:43;6.10;85.10
75824;DHT22;64457;51.976;9.834;2023-02-28T09:23:12;6.20;84.90
75824;DHT22;64457;51.976;9.834;2023-02-28T09:25:45;6.30;84.50
75824;DHT22;64457;51.976;9.834;2023-02-28T09:28:13;6.40;83.90
75824;DHT22;64457;51.976;9.834;2023-02-28T09:30:43;6.40;83.30
75824;DHT22;64457;51.976;9.834;2023-02-28T09:33:14;6.40;83.70
75824;DHT22;64457;51.976;9.834;2023-02-28T09:35:42;6.20;84.20
75824;DHT22;64457;51.976;9.834;2023-02-28T09:38:10;6.10;84.20
75824;DHT22;64457;51.976;9.834;2023-02-28T09:40:47;6.00;84.80
75824;DHT22;64457;51.976;9.834;2023-02-28T09:43:19;5.90;85.30
75824;DHT22;64457;51.976;9.834;2023-02-28T09:45:50;5.70;86.30
75824;DHT22;64457;51.976;9.834;2023-02-28T09:48:29;5.80;88.20
75824;DHT22;64457;51.976;9.834;2023-02-28T09:51:03;6.50;89.50
75824;DHT22;64457;51.976;9.834;2023-02-28T09:53:34;7.40;86.10
75824;DHT22;64457;51.976;9.834;2023-02-28T09:56:08;8.30;87.00
75824;DHT22;64457;51.976;9.834;2023-02-28T09:58:40;9.20;79.50
75824;DHT22;64457;51.976;9.834;2023-02-28T10:01:19;10.30;82.80
75824;DHT22;64457;51.976;9.834;2023-02-28T10:03:56;10.90;73.30
75824;DHT22;64457;51.976;9.834;2023-02-28T10:06:29;12.40;72.30
75824;DHT22;64457;51.976;9.834;2023-02-28T10:09:02;13.30;70.00
75824;DHT22;64457;51.976;9.834;2023-02-28T10:11:33;13.80;65.80
75824;DHT22;64457;51.976;9.834;2023-02-28T10:14:06;13.90;67.30
75824;DHT22;64457;51.976;9.834;2023-02-28T10:16:41;14.50;62.40
75824;DHT22;64457;51.976;9.834;2023-02-28T10:19:18;14.80;59.50
75824;DHT22;64457;51.976;9.834;2023-02-28T10:21:52;14.60;61.60
75824;DHT22;64457;51.976;9.834;2023-02-28T10:24:28;15.10;58.90
75824;DHT22;64457;51.976;9.834;2023-02-28T10:27:00;14.80;55.60
75824;DHT22;64457;51.976;9.834;2023-02-28T10:29:31;15.20;60.00
75824;DHT22;64457;51.976;9.834;2023-02-28T10:32:02;15.50;56.30
75824;DHT22;64457;51.976;9.834;2023-02-28T10:34:31;15.60;56.80
75824;DHT22;64457;51.976;9.834;2023-02-28T10:36:59;14.50;54.00
75824;DHT22;64457;51.976;9.834;2023-02-28T10:39:37;14.60;54.80
75824;DHT22;64457;51.976;9.834;2023-02-28T10:42:19;13.40;55.90
75824;DHT22;64457;51.976;9.834;2023-02-28T10:45:05;14.00;59.10
75824;DHT22;64457;51.976;9.834;2023-02-28T10:47:42;14.40;58.70
75824;DHT22;64457;51.976;9.834;2023-02-28T10:50:30;14.50;54.90
75824;DHT22;64457;51.976;9.834;2023-02-28T10:53:16;15.20;60.00
75824;DHT22;64457;51.976;9.834;2023-02-28T10:55:57;15.50;57.10
75824;DHT22;64457;51.976;9.834;2023-02-28T10:58:28;15.70;53.50
75824;DHT22;64457;51.976;9.834;2023-02-28T11:00:56;14.10;53.20
75824;DHT22;64457;51.976;9.834;2023-02-28T11:03:30;13.90;56.70
75824;DHT22;64457;51.976;9.834;2023-02-28T11:06:05;13.80;54.60
75824;DHT22;64457;51.976;9.834;2023-02-28T11:08:34;13.00;55.10
75824;DHT22;64457;51.976;9.834;2023-02-28T11:11:11;12.00;52.90
75824;DHT22;64457;51.976;9.834;2023-02-28T11:13:38;12.40;54.40
75824;DHT22;64457;51.976;9.834;2023-02-28T11:16:08;12.30;56.00
75824;DHT22;64457;51.976;9.834;2023-02-28T11:18:41;11.60;54.40
75824;DHT22;64457;51.976;9.834;2023-02-28T11:21:18;11.10;55.70
75824;DHT22;64457;51.976;9.834;2023-02-28T11:23:50;11.50;60.80
75824;DHT22;64457;51.976;9.834;2023-02-28T11:26:39;12.40;59.80
75824;DHT22;64457;51.976;9.834;2023-02-28T11:29:17;12.30;58.40
75824;DHT22;64457;51.976;9.834;2023-02-28T11:32:05;12.40;56.60
75824;DHT22;64457;51.976;9.834;2023-02-28T11:34:40;12.30;57.20
75824;DHT22;64457;51.976;9.834;2023-02-28T11:37:13;12.10;55.90
75824;DHT22;64457;51.976;9.834;2023-02-28T11:39:42;12.50;58.70
75824;DHT22;64457;51.976;9.834;2023-02-28T11:42:35;13.00;57.90
75824;DHT22;64457;51.976;9.834;2023-02-28T11:45:21;13.10;54.60
75824;DHT22;64457;51.976;9.834;2023-02-28T11:47:57;12.70;53.00
75824;DHT22;64457;51.976;9.834;2023-02-28T11:50:45;13.00;55.60
75824;DHT22;64457;51.976;9.834;2023-02-28T11:53:22;13.30;57.40
75824;DHT22;64457;51.976;9.834;2023-02-28T11:56:15;13.70;55.80
75824;DHT22;64457;51.976;9.834;2023-02-28T11:58:53;12.70;51.70
75824;DHT22;64457;51.976;9.834;2023-02-28T12:01:34;12.00;52.10
75824;DHT22;64457;51.976;9.834;2023-02-28T12:04:21;12.10;57.70
75824;DHT22;64457;51.976;9.834;2023-02-28T12:06:56;12.10;58.40
75824;DHT22;64457;51.976;9.834;2023-02-28T12:09:47;12.00;54.80
75824;DHT22;64457;51.976;9.834;2023-02-28T12:12:29;11.20;54.80
75824;DHT22;64457;51.976;9.834;2023-02-28T12:15:21;11.10;54.20
75824;DHT22;64457;51.976;9.834;2023-02-28T12:18:08;11.00;56.80
75824;DHT22;64457;51.976;9.834;2023-02-28T12:20:46;11.30;56.00
75824;DHT22;64457;51.976;9.834;2023-02-28T12:23:31;11.60;57.40
75824;DHT22;64457;51.976;9.834;2023-02-28T12:26:15;11.80;54.70
75824;DHT22;64457;51.976;9.834;2023-02-28T12:28:49;11.30;51.30
75824;DHT22;64457;51.976;9.834;2023-02-28T12:31:20;10.90;54.60
75824;DHT22;64457;51.976;9.834;2023-02-28T12:33:52;10.90;56.70
75824;DHT22;64457;51.976;9.834;2023-02-28T12:36:22;10.80;53.90
75824;DHT22;64457;51.976;9.834;2023-02-28T12:38:55;10.70;55.00
75824;DHT22;64457;51.976;9.834;2023-02-28T12:41:34;10.90;54.00
75824;DHT22;64457;51.976;9.834;2023-02-28T12:44:11;10.80;54.80
75824;DHT22;64457;51.976;9.834;2023-02-28T12:46:42;10.70;55.50
75824;DHT22;64457;51.976;9.834;2023-02-28T12:49:13;10.60;56.10
75824;DHT22;64457;51.976;9.834;2023-02-28T12:51:44;10.60;57.60
75824;DHT22;64457;51.976;9.834;2023-02-28T12:54:19;10.80;58.10
75824;DHT22;64457;51.976;9.834;2023-02-28T12:56:56;11.10;60.30
75824;DHT22;64457;51.976;9.834;2023-02-28T12:59:34;10.90;55.50
75824;DHT22;64457;51.976;9.834;2023-02-28T13:02:24;10.60;56.00
75824;DHT22;64457;51.976;9.834;2023-02-28T13:05:29;10.60;59.40
75824;DHT22;64457;51.976;9.834;2023-02-28T13:11:34;10.90;59.80
75824;DHT22;64457;51.976;9.834;2023-02-28T13:14:19;11.00;58.90
75824;DHT22;64457;51.976;9.834;2023-02-28T13:16:57;11.40;59.80
75824;DHT22;64457;51.976;9.834;2023-02-28T13:19:28;11.10;57.80
75824;DHT22;64457;51.976;9.834;2023-02-28T13:21:58;11.30;57.60
75824;DHT22;64457;51.976;9.834;2023-02-28T13:24:44;11.40;57.60
75824;DHT22;64457;51.976;9.834;2023-02-28T13:27:23;11.50;57.90
75824;DHT22;64457;51.976;9.834;2023-02-28T13:29:53;11.30;55.90
75824;DHT22;64457;51.976;9.834;2023-02-28T13:32:35;11.20;57.10
75824;DHT22;64457;51.976;9.834;2023-02-28T13:35:42;10.90;55.20
75824;DHT22;64457;51.976;9.834;2023-02-28T13:41:40;10.60;59.30
75824;DHT22;64457;51.976;9.834;2023-02-28T13:44:13;10.80;57.80
75824;DHT22;64457;51.976;9.834;2023-02-28T13:47:21;11.10;57.60
75824;DHT22;64457;51.976;9.834;2023-02-28T13:49:51;11.50;56.50
75824;DHT22;64457;51.976;9.834;2023-02-28T13:52:22;11.40;53.90
75824;DHT22;64457;51.976;9.834;2023-02-28T13:55:19;11.20;57.50
75824;DHT22;64457;51.976;9.834;2023-02-28T13:58:05;10.80;54.20
75824;DHT22;64457;51.976;9.834;2023-02-28T14:00:52;10.90;56.40
75824;DHT22;64457;51.976;9.834;2023-02-28T14:03:48;11.00;54.10
75824;DHT22;64457;51.976;9.834;2023-02-28T14:06:27;11.30;56.90
75824;DHT22;64457;51.976;9.834;2023-02-28T14:08:58;11.50;55.60
75824;DHT22;64457;51.976;9.834;2023-02-28T14:11:32;11.40;57.50
75824;DHT22;64457;51.976;9.834;2023-02-28T14:14:04;11.20;56.00
75824;DHT22;64457;51.976;9.834;2023-02-28T14:16:38;10.90;56.50
75824;DHT22;64457;51.976;9.834;2023-02-28T14:19:13;11.00;53.80
75824;DHT22;64457;51.976;9.834;2023-02-28T14:21:51;11.20;57.20
75824;DHT22;64457;51.976;9.834;2023-02-28T14:25:01;11.00;53.50
75824;DHT22;64457;51.976;9.834;2023-02-28T14:27:41;10.60;54.20
75824;DHT22;64457;51.976;9.834;2023-02-28T14:30:37;10.60;55.50
75824;DHT22;64457;51.976;9.834;2023-02-28T14:33:25;10.00;55.30
75824;DHT22;64457;51.976;9.834;2023-02-28T14:36:10;10.20;56.10
75824;DHT22;64457;51.976;9.834;2023-02-28T14:38:44;10.20;56.30
75824;DHT22;64457;51.976;9.834;2023-02-28T14:41:21;10.30;57.00
75824;DHT22;64457;51.976;9.834;2023-02-28T14:43:53;10.30;58.70
75824;DHT22;64457;51.976;9.834;2023-02-28T14:46:25;10.40;57.50
75824;DHT22;64457;51.976;9.834;2023-02-28T14:48:54;10.20;56.00
75824;DHT22;64457;51.976;9.834;2023-02-28T14:51:24;10.20;58.10
75824;DHT22;64457;51.976;9.834;2023-02-28T14:53:57;10.00;58.20
75824;DHT22;64457;51.976;9.834;2023-02-28T14:56:30;9.70;57.40
75824;DHT22;64457;51.976;9.834;2023-02-28T14:59:01;9.40;59.90
75824;DHT22;64457;51.976;9.834;2023-02-28T15:01:28;9.40;59.90
75824;DHT22;64457;51.976;9.834;2023-02-28T15:03:59;9.70;59.60
75824;DHT22;64457;51.976;9.834;2023-02-28T15:06:30;9.90;59.40
75824;DHT22;64457;51.976;9.834;2023-02-28T15:09:17;10.00;58.00
75824;DHT22;64457;51.976;9.834;2023-02-28T15:11:48;10.40;57.10
75824;DHT22;64457;51.976;9.834;2023-02-28T15:14:21;10.50;57.10
75824;DHT22;64457;51.976;9.834;2023-02-28T15:16:52;10.50;56.20
75824;DHT22;64457;51.976;9.834;2023-02-28T15:19:25;10.10;56.80
75824;DHT22;64457;51.976;9.834;2023-02-28T15:21:58;9.90;58.60
75824;DHT22;64457;51.976;9.834;2023-02-28T15:24:34;9.90;59.70
75824;DHT22;64457;51.976;9.834;2023-02-28T15:27:06;10.40;59.30
75824;DHT22;64457;51.976;9.834;2023-02-28T15:29:44;10.30;58.20
75824;DHT22;64457;51.976;9.834;2023-02-28T15:32:27;10.10;55.50
75824;DHT22;64457;51.976;9.834;2023-02-28T15:34:57;9.50;57.10
75824;DHT22;64457;51.976;9.834;2023-02-28T15:37:30;9.20;58.80
75824;DHT22;64457;51.976;9.834;2023-02-28T15:40:12;9.10;61.10
75824;DHT22;64457;51.976;9.834;2023-02-28T15:42:42;9.20;60.30
75824;DHT22;64457;51.976;9.834;2023-02-28T15:45:33;9.30;58.00
75824;DHT22;64457;51.976;9.834;2023-02-28T15:48:04;9.20;59.50
75824;DHT22;64457;51.976;9.834;2023-02-28T15:50:32;9.20;60.30
75824;DHT22;64457;51.976;9.834;2023-02-28T15:53:01;9.00;59.50
75824;DHT22;64457;51.976;9.834;2023-02-28T15:55:30;9.30;60.70
75824;DHT22;64457;51.976;9.834;2023-02-28T15:58:00;9.30;59.00
75824;DHT22;64457;51.976;9.834;2023-02-28T16:00:30;9.40;61.20
75824;DHT22;64457;51.976;9.834;2023-02-28T16:02:58;8.90;58.00
75824;DHT22;64457;51.976;9.834;2023-02-28T16:05:27;9.30;60.60
75824;DHT22;64457;51.976;9.834;2023-02-28T16:07:59;9.10;58.90
75824;DHT22;64457;51.976;9.834;2023-02-28T16:10:33;9.30;60.70
75824;DHT22;64457;51.976;9.834;2023-02-28T16:13:02;9.40;60.60
75824;DHT22;64457;51.976;9.834;2023-02-28T16:15:33;9.40;59.20
75824;DHT22;64457;51.976;9.834;2023-02-28T16:18:08;9.60;59.80
75824;DHT22;64457;51.976;9.834;2023-02-28T16:20:37;9.70;59.80
75824;DHT22;64457;51.976;9.834;2023-02-28T16:23:06;9.70;59.60
75824;DHT22;64457;51.976;9.834;2023-02-28T16:25:35;9.60;60.80
75824;DHT22;64457;51.976;9.834;2023-02-28T16:28:05;9.60;59.40
75824;DHT22;64457;51.976;9.834;2023-02-28T16:30:35;9.40;59.70
75824;DHT22;64457;51.976;9.834;2023-02-28T16:33:03;9.00;60.00